Atlantic City, Wyoming
Current Conditions -  °F | °C
As of 6:15 PM on Wednesday 22 Oct 2014 (Local Time) from KFWZ Reporting Station
Clear Clear  
Wind Chill: 34°   Ceiling: Unl
Heat Index: 41°   Visibility: 10mi
Dew Point: 18°   Wind: 13mph
Humidity: 39%   Direction: 270°W
Pressure: 30.12"   Gusts: 20mph
Location:  42.6143°N, 108.586°W
Report Text: KFWZ 230015Z AUTO 27011G17KT 10SM CLR 05/M08 A3012 RMK AO2
Loading
Personal Weather Stations






























Interactive Weather Map
Tropical Storm Tracking
New forecast layout! Learn more

10-Day Weather Forecast

Advertisements
Track Severe Weather on mobile